| time (UTC) | temp F | wind direction | speed MPH | gust MPH | rain 1hr in | rain 24hr in | rain mn in | humidity % | barometer mb |
| 20260508033015 | 43 | 6 | 0.0 | 0.0 | 0.00 | 0.00 | 0.00 | 982.8 | |
| 20260508032514 | 44 | 6 | 0.0 | 0.0 | 0.00 | 0.00 | 0.00 | 982.8 | |
| 20260508032014 | 44 | 6 | 0.0 | 0.0 | 0.00 | 0.00 | 0.00 | 982.8 | |
| 20260508031518 | 44 | 6 | 0.0 | 0.0 | 0.00 | 0.00 | 0.00 | 983.8 | |
| 20260508031014 | 44 | 6 | 0.0 | 0.0 | 0.00 | 0.00 | 0.00 | 983.8 | |
| 20260508030513 | 44 | 6 | 0.0 | 0.0 | 0.00 | 0.00 | 0.00 | 983.8 | |
| 20260508030025 | 45 | 7 | 0.0 | 0.0 | 0.00 | 0.00 | 0.00 | 982.8 | |
| 20260508025519 | 45 | 6 | 0.0 | 0.0 | 0.00 | 0.00 | 0.00 | 982.8 | |
| 20260508025015 | 45 | 6 | 0.0 | 0.0 | 0.00 | 0.00 | 0.00 | 982.8 | |
| 20260508024513 | 45 | 6 | 0.0 | 0.0 | 0.00 | 0.00 | 0.00 | 982.8 | |
| 20260508024023 | 46 | 6 | 0.0 | 0.0 | 0.00 | 0.00 | 0.00 | 982.8 | |
| 20260508023514 | 46 | 6 | 0.0 | 0.0 | 0.00 | 0.00 | 0.00 | 982.8 | |
| 20260508023018 | 46 | 7 | 0.0 | 0.0 | 0.00 | 0.00 | 0.00 | 982.8 | |
| 20260508022513 | 46 | 6 | 0.0 | 0.0 | 0.00 | 0.00 | 0.00 | 982.8 | |
| 20260508022014 | 46 | 6 | 0.0 | 0.0 | 0.00 | 0.00 | 0.00 | 982.8 | |
| 20260508021524 | 46 | 6 | 0.0 | 0.0 | 0.00 | 0.00 | 0.00 | 982.8 | |
| 20260508021036 | 46 | 6 | 0.0 | 0.0 | 0.00 | 0.00 | 0.00 | 982.8 | |
| 20260508020514 | 46 | 6 | 0.0 | 0.0 | 0.00 | 0.00 | 0.00 | 982.8 | |
| 20260508020016 | 47 | 6 | 0.0 | 0.0 | 0.00 | 0.00 | 0.00 | 982.8 | |
| 20260508015514 | 47 | 15 | 3.0 | 3.0 | 0.00 | 0.00 | 0.00 | 982.8 | |
| 20260508015014 | 47 | 32 | 0.0 | 0.0 | 0.00 | 0.00 | 0.00 | 982.8 | |
| 20260508014514 | 47 | 32 | 0.0 | 0.0 | 0.00 | 0.00 | 0.00 | 982.8 | |
| 20260508014014 | 47 | 32 | 0.0 | 0.0 | 0.00 | 0.00 | 0.00 | 982.8 | |
| 20260508013514 | 47 | 32 | 0.0 | 0.0 | 0.00 | 0.00 | 0.00 | 982.8 | |
| 20260508013015 | 48 | 32 | 0.0 | 0.0 | 0.00 | 0.00 | 0.00 | 982.8 | |
| 20260508012515 | 48 | 32 | 0.0 | 0.0 | 0.00 | 0.00 | 0.00 | 982.8 | |
| 20260508012013 | 48 | 32 | 0.0 | 0.0 | 0.00 | 0.00 | 0.00 | 982.8 | |
| 20260508011513 | 49 | 32 | 0.0 | 0.0 | 0.00 | 0.00 | 0.00 | 981.8 | |
| 20260508011019 | 49 | 32 | 0.0 | 0.0 | 0.00 | 0.00 | 0.00 | 981.8 | |
| 20260508010525 | 49 | 32 | 0.0 | 0.0 | 0.00 | 0.00 | 0.00 | 981.8 | |
| 20260508010017 | 49 | 32 | 0.0 | 0.0 | 0.00 | 0.00 | 0.00 | 981.8 | |
| 20260508005519 | 49 | 32 | 0.0 | 0.0 | 0.00 | 0.00 | 0.00 | 981.8 | |
| 20260508005017 | 50 | 32 | 0.0 | 0.0 | 0.00 | 0.00 | 0.00 | 981.8 | |
| 20260508004542 | 50 | 32 | 0.0 | 0.0 | 0.00 | 0.00 | 0.00 | 982.8 | |
| 20260508004013 | 50 | 32 | 0.0 | 0.0 | 0.00 | 0.00 | 0.00 | 982.8 | |
| 20260508003520 | 50 | 32 | 0.0 | 0.0 | 0.00 | 0.00 | 0.00 | 982.8 | |
| 20260508003046 | 50 | 32 | 0.0 | 0.0 | 0.00 | 0.00 | 0.00 | 982.8 | |
| 20260508002517 | 50 | 32 | 0.0 | 0.0 | 0.00 | 0.00 | 0.00 | 982.8 | |
| 20260508002014 | 51 | 32 | 0.0 | 0.0 | 0.00 | 0.00 | 0.00 | 982.8 | |
| 20260508001514 | 51 | 32 | 0.0 | 0.0 | 0.00 | 0.00 | 0.00 | 982.8 | |
| 20260508001013 | 51 | 32 | 0.0 | 0.0 | 0.00 | 0.00 | 0.00 | 982.8 | |
| 20260508000516 | 51 | 32 | 0.0 | 0.0 | 0.00 | 0.00 | 0.00 | 982.8 | |
| 20260508000014 | 51 | 32 | 0.0 | 0.0 | 0.00 | 0.00 | 0.00 | 982.8 | |
| 20260507235513 | 51 | 31 | 0.0 | 0.0 | 0.00 | 0.00 | 0.00 | 982.8 | |
| 20260507235018 | 51 | 31 | 0.0 | 0.0 | 0.00 | 0.00 | 0.00 | 982.8 | |
| 20260507234523 | 52 | 322 | 0.0 | 0.0 | 0.00 | 0.00 | 0.00 | 982.8 | |
| 20260507234015 | 52 | 322 | 0.0 | 0.0 | 0.00 | 0.00 | 0.00 | 982.8 | |
| 20260507233522 | 52 | 321 | 0.0 | 0.0 | 0.00 | 0.00 | 0.00 | 982.8 | |
| 20260507233026 | 52 | 31 | 0.0 | 0.0 | 0.00 | 0.00 | 0.00 | 982.8 | |
| 20260507232515 | 53 | 53 | 0.0 | 3.0 | 0.00 | 0.00 | 0.00 | 982.8 | |
| 20260507232020 | 53 | 50 | 0.0 | 0.0 | 0.00 | 0.00 | 0.00 | 982.8 | |
| 20260507231518 | 53 | 66 | 0.0 | 3.0 | 0.00 | 0.00 | 0.00 | 981.8 | |
| 20260507231013 | 53 | 62 | 3.0 | 0.0 | 0.00 | 0.00 | 0.00 | 981.8 | |
| 20260507230516 | 54 | 333 | 2.0 | 3.0 | 0.00 | 0.00 | 0.00 | 981.8 | |
| 20260507230015 | 54 | 325 | 0.0 | 3.0 | 0.00 | 0.00 | 0.00 | 982.8 | |
| 20260507225513 | 55 | 34 | 6.0 | 5.0 | 0.00 | 0.00 | 0.00 | 982.8 | |
| 20260507225020 | 56 | 4 | 3.0 | 4.0 | 0.00 | 0.00 | 0.00 | 982.8 | |
| 20260507224513 | 56 | 321 | 0.0 | 2.0 | 0.00 | 0.00 | 0.00 | 981.8 | |
| 20260507224017 | 56 | 214 | 4.0 | 6.0 | 0.00 | 0.00 | 0.00 | 981.8 | |
| 20260507223519 | 55 | 253 | 5.0 | 5.0 | 0.00 | 0.00 | 0.00 | 981.8 | |
| 20260507223019 | 55 | 219 | 2.0 | 0.0 | 0.00 | 0.00 | 0.00 | 982.8 | |
| 20260507222513 | 55 | 146 | 5.0 | 4.0 | 0.00 | 0.00 | 0.00 | 982.8 | |
| 20260507222013 | 55 | 244 | 4.0 | 4.0 | 0.00 | 0.00 | 0.00 | 982.8 | |
| 20260507221513 | 55 | 226 | 4.0 | 3.0 | 0.00 | 0.00 | 0.00 | 982.8 | |
| 20260507221015 | 54 | 236 | 5.0 | 13.0 | 0.00 | 0.00 | 0.00 | 982.8 | |
| 20260507220517 | 54 | 203 | 0.0 | 5.0 | 0.00 | 0.00 | 0.00 | 982.8 | |
| 20260507220025 | 53 | 232 | 3.0 | 4.0 | 0.00 | 0.00 | 0.00 | 982.8 | |
| 20260507215514 | 53 | 146 | 0.0 | 0.0 | 0.00 | 0.00 | 0.00 | 982.8 | |
| 20260507215035 | 53 | 240 | 0.0 | 0.0 | 0.00 | 0.00 | 0.00 | 982.8 | |
| 20260507214514 | 52 | 166 | 0.0 | 0.0 | 0.00 | 0.00 | 0.00 | 982.8 | |
| 20260507214016 | 52 | 158 | 0.0 | 0.0 | 0.00 | 0.00 | 0.00 | 982.8 | |
| 20260507213514 | 52 | 158 | 3.0 | 6.0 | 0.00 | 0.00 | 0.00 | 982.8 | |
| 20260507213035 | 52 | 188 | 3.0 | 0.0 | 0.00 | 0.00 | 0.00 | 982.8 | |
| 20260507212544 | 52 | 214 | 0.0 | 0.0 | 0.00 | 0.00 | 0.00 | 982.8 | |
| 20260507212013 | 52 | 193 | 0.0 | 0.0 | 0.00 | 0.00 | 0.00 | 982.8 | |
| 20260507211542 | 52 | 192 | 0.0 | 0.0 | 0.00 | 0.00 | 0.00 | 982.8 | |
| 20260507211014 | 52 | 192 | 0.0 | 0.0 | 0.00 | 0.00 | 0.00 | 982.8 | |
| 20260507210515 | 52 | 216 | 0.0 | 2.0 | 0.00 | 0.00 | 0.00 | 982.8 | |
| 20260507210015 | 53 | 154 | 0.0 | 0.0 | 0.00 | 0.00 | 0.00 | 982.8 | |
| 20260507205514 | 53 | 334 | 0.0 | 0.0 | 0.00 | 0.00 | 0.00 | 982.8 | |
| 20260507205014 | 54 | 334 | 0.0 | 0.0 | 0.00 | 0.00 | 0.00 | 982.8 | |
| 20260507204515 | 54 | 317 | 0.0 | 0.0 | 0.00 | 0.00 | 0.00 | 982.8 | |
| 20260507204014 | 54 | 317 | 0.0 | 4.0 | 0.00 | 0.00 | 0.00 | 982.8 | |
| 20260507203515 | 54 | 18 | 0.0 | 0.0 | 0.00 | 0.00 | 0.00 | 982.8 | |
| 20260507203015 | 54 | 333 | 0.0 | 0.0 | 0.00 | 0.00 | 0.00 | 982.8 | |
| 20260507202513 | 54 | 35 | 0.0 | 0.0 | 0.00 | 0.00 | 0.00 | 982.8 | |
| 20260507202014 | 54 | 308 | 6.0 | 5.0 | 0.00 | 0.00 | 0.00 | 982.8 | |
| 20260507201517 | 54 | 332 | 0.0 | 0.0 | 0.00 | 0.00 | 0.00 | 982.8 | |
| 20260507201015 | 54 | 332 | 0.0 | 0.0 | 0.00 | 0.00 | 0.00 | 982.8 | |
| 20260507200516 | 55 | 332 | 0.0 | 0.0 | 0.00 | 0.00 | 0.00 | 982.8 | |
| 20260507200036 | 55 | 332 | 0.0 | 0.0 | 0.00 | 0.00 | 0.00 | 983.8 | |
| 20260507195519 | 55 | 332 | 0.0 | 0.0 | 0.00 | 0.00 | 0.00 | 983.8 | |
| 20260507195026 | 54 | 332 | 0.0 | 0.0 | 0.00 | 0.00 | 0.00 | 983.8 | |
| 20260507194513 | 54 | 332 | 0.0 | 0.0 | 0.00 | 0.00 | 0.00 | 983.8 | |
| 20260507194023 | 54 | 332 | 0.0 | 0.0 | 0.00 | 0.00 | 0.00 | 983.8 | |
| 20260507193516 | 54 | 332 | 0.0 | 0.0 | 0.00 | 0.00 | 0.00 | 983.8 | |
| 20260507193042 | 54 | 321 | 0.0 | 0.0 | 0.00 | 0.00 | 0.00 | 983.8 | |
| 20260507192522 | 54 | 342 | 0.0 | 0.0 | 0.00 | 0.00 | 0.00 | 983.8 | |
| 20260507192016 | 55 | 338 | 0.0 | 0.0 | 0.00 | 0.00 | 0.00 | 983.8 | |
| 20260507191515 | 56 | 199 | 0.0 | 0.0 | 0.00 | 0.00 | 0.00 | 984.8 | |
| 20260507191017 | 56 | 237 | 3.0 | 3.0 | 0.00 | 0.00 | 0.00 | 984.8 | |
| 20260507190523 | 57 | 243 | 0.0 | 0.0 | 0.00 | 0.00 | 0.00 | 984.8 | |
| 20260507190015 | 57 | 235 | 0.0 | 0.0 | 0.00 | 0.00 | 0.00 | 984.8 | |
| 20260507185513 | 57 | 217 | 0.0 | 0.0 | 0.00 | 0.00 | 0.00 | 984.8 | |
| 20260507185013 | 57 | 236 | 2.0 | 0.0 | 0.00 | 0.00 | 0.00 | 984.8 | |
| 20260507184513 | 58 | 217 | 6.0 | 5.0 | 0.00 | 0.00 | 0.00 | 983.8 | |
| 20260507184018 | 59 | 228 | 11.0 | 15.0 | 0.00 | 0.00 | 0.00 | 983.8 | |
| 20260507183517 | 60 | 218 | 4.0 | 6.0 | 0.00 | 0.00 | 0.00 | 983.8 | |
| 20260507183015 | 61 | 238 | 4.0 | 6.0 | 0.00 | 0.00 | 0.00 | 984.8 | |
| 20260507182516 | 61 | 235 | 5.0 | 6.0 | 0.00 | 0.00 | 0.00 | 984.8 | |
| 20260507182034 | 61 | 218 | 3.0 | 0.0 | 0.00 | 0.00 | 0.00 | 984.8 | |
| 20260507181515 | 60 | 203 | 4.0 | 3.0 | 0.00 | 0.00 | 0.00 | 984.8 | |
| 20260507181014 | 59 | 226 | 2.0 | 6.0 | 0.00 | 0.00 | 0.00 | 984.8 | |
| 20260507180514 | 60 | 240 | 0.0 | 0.0 | 0.00 | 0.00 | 0.00 | 984.8 | |
| 20260507180018 | 60 | 234 | 3.0 | 6.0 | 0.00 | 0.00 | 0.00 | 984.8 | |
| 20260507175514 | 59 | 220 | 5.0 | 5.0 | 0.00 | 0.00 | 0.00 | 984.8 | |
| 20260507175035 | 58 | 224 | 6.0 | 3.0 | 0.00 | 0.00 | 0.00 | 984.8 | |
| 20260507174518 | 58 | 235 | 3.0 | 4.0 | 0.00 | 0.00 | 0.00 | 985.8 | |
| 20260507174014 | 59 | 170 | 3.0 | 4.0 | 0.00 | 0.00 | 0.00 | 985.8 | |
| 20260507173515 | 59 | 234 | 4.0 | 0.0 | 0.00 | 0.00 | 0.00 | 985.8 | |
| 20260507173014 | 59 | 202 | 3.0 | 2.0 | 0.00 | 0.00 | 0.00 | 985.8 | |
| 20260507172517 | 60 | 177 | 3.0 | 3.0 | 0.00 | 0.00 | 0.00 | 985.8 | |
| 20260507172013 | 60 | 232 | 6.0 | 4.0 | 0.00 | 0.00 | 0.00 | 985.8 | |
| 20260507171513 | 60 | 250 | 4.0 | 8.0 | 0.00 | 0.00 | 0.00 | 985.8 | |
| 20260507171035 | 61 | 213 | 4.0 | 6.0 | 0.00 | 0.00 | 0.00 | 985.8 | |
| 20260507170513 | 61 | 170 | 4.0 | 0.0 | 0.00 | 0.00 | 0.00 | 985.8 | |
| 20260507170016 | 61 | 173 | 3.0 | 3.0 | 0.00 | 0.00 | 0.00 | 985.8 | |
| 20260507165513 | 62 | 193 | 4.0 | 8.0 | 0.00 | 0.00 | 0.00 | 985.8 | |
| 20260507165014 | 61 | 227 | 4.0 | 3.0 | 0.00 | 0.00 | 0.00 | 985.8 | |
| 20260507164516 | 62 | 227 | 4.0 | 6.0 | 0.00 | 0.00 | 0.00 | 985.8 | |
| 20260507164013 | 62 | 105 | 5.0 | 5.0 | 0.00 | 0.00 | 0.00 | 985.8 | |
| 20260507163514 | 61 | 253 | 2.0 | 0.0 | 0.00 | 0.00 | 0.00 | 985.8 | |
| 20260507163018 | 61 | 226 | 4.0 | 3.0 | 0.00 | 0.00 | 0.00 | 985.8 | |
| 20260507162519 | 62 | 234 | 0.0 | 3.0 | 0.00 | 0.00 | 0.00 | 985.8 | |
| 20260507162024 | 62 | 196 | 4.0 | 4.0 | 0.00 | 0.00 | 0.00 | 985.8 | |
| 20260507161517 | 61 | 230 | 3.0 | 5.0 | 0.00 | 0.00 | 0.00 | 986.8 | |
| 20260507161017 | 60 | 229 | 4.0 | 8.0 | 0.00 | 0.00 | 0.00 | 986.8 | |
| 20260507160514 | 60 | 218 | 4.0 | 3.0 | 0.00 | 0.00 | 0.00 | 986.8 | |
| 20260507160024 | 60 | 223 | 2.0 | 4.0 | 0.00 | 0.00 | 0.00 | 986.8 | |
| 20260507155514 | 60 | 239 | 3.0 | 6.0 | 0.00 | 0.00 | 0.00 | 986.8 | |
| 20260507155019 | 59 | 253 | 5.0 | 8.0 | 0.00 | 0.00 | 0.00 | 986.8 | |
| 20260507154516 | 59 | 221 | 0.0 | 0.0 | 0.00 | 0.00 | 0.00 | 986.8 | |
| 20260507154018 | 59 | 194 | 3.0 | 0.0 | 0.00 | 0.00 | 0.00 | 986.8 | |
| 20260507153547 | 58 | 139 | 4.0 | 5.0 | 0.00 | 0.00 | 0.00 | 986.8 | |
| 20260507153041 | 58 | 201 | 0.0 | 3.0 | 0.00 | 0.00 | 0.00 | 986.8 | |
| 20260507152537 | 57 | 239 | 3.0 | 2.0 | 0.00 | 0.00 | 0.00 | 986.8 | |
| 20260507152014 | 57 | 200 | 2.0 | 0.0 | 0.00 | 0.00 | 0.00 | 986.8 | |
| 20260507151514 | 57 | 207 | 0.0 | 3.0 | 0.00 | 0.00 | 0.00 | 987.8 | |
| 20260507151023 | 56 | 250 | 0.0 | 0.0 | 0.00 | 0.00 | 0.00 | 987.8 | |
| 20260507150535 | 56 | 342 | 0.0 | 2.0 | 0.00 | 0.00 | 0.00 | 987.8 | |
| 20260507150014 | 56 | 218 | 0.0 | 0.0 | 0.00 | 0.00 | 0.00 | 987.8 | |
| 20260507145516 | 55 | 231 | 0.0 | 4.0 | 0.00 | 0.00 | 0.00 | 987.8 | |
| 20260507145014 | 54 | 328 | 0.0 | 3.0 | 0.00 | 0.00 | 0.00 | 987.8 | |
| 20260507144515 | 54 | 191 | 0.0 | 0.0 | 0.00 | 0.00 | 0.00 | 987.8 | |
| 20260507144019 | 53 | 316 | 4.0 | 4.0 | 0.00 | 0.00 | 0.00 | 987.8 | |
| 20260507143538 | 52 | 196 | 3.0 | 4.0 | 0.00 | 0.00 | 0.00 | 987.8 | |
| 20260507143014 | 52 | 270 | 0.0 | 5.0 | 0.00 | 0.00 | 0.00 | 987.8 | |
| 20260507142535 | 51 | 216 | 3.0 | 0.0 | 0.00 | 0.00 | 0.00 | 987.8 | |
| 20260507142016 | 50 | 203 | 3.0 | 2.0 | 0.00 | 0.00 | 0.00 | 987.8 | |
| 20260507141542 | 50 | 214 | 0.0 | 6.0 | 0.00 | 0.00 | 0.00 | 987.8 | |
| 20260507141017 | 50 | 222 | 0.0 | 0.0 | 0.00 | 0.00 | 0.00 | 987.8 | |
| 20260507140519 | 50 | 240 | 0.0 | 4.0 | 0.00 | 0.00 | 0.00 | 987.8 | |
| 20260507140014 | 49 | 218 | 0.0 | 0.0 | 0.00 | 0.00 | 0.00 | 987.8 | |
| 20260507135514 | 48 | 232 | 2.0 | 0.0 | 0.00 | 0.00 | 0.00 | 987.8 | |
| 20260507135013 | 47 | 209 | 0.0 | 0.0 | 0.00 | 0.00 | 0.00 | 987.8 | |
| 20260507134514 | 46 | 216 | 0.0 | 0.0 | 0.00 | 0.00 | 0.00 | 987.8 | |
| 20260507134018 | 45 | 206 | 0.0 | 0.0 | 0.00 | 0.00 | 0.00 | 987.8 | |
| 20260507133514 | 44 | 193 | 0.0 | 0.0 | 0.00 | 0.00 | 0.00 | 987.8 | |
| 20260507133015 | 43 | 224 | 0.0 | 0.0 | 0.00 | 0.00 | 0.00 | 987.8 | |
| 20260507132518 | 42 | 220 | 0.0 | 0.0 | 0.00 | 0.00 | 0.00 | 987.8 | |
| 20260507132034 | 42 | 225 | 0.0 | 2.0 | 0.00 | 0.00 | 0.00 | 987.8 | |
| 20260507131514 | 42 | 201 | 0.0 | 0.0 | 0.00 | 0.00 | 0.00 | 988.8 | |
| 20260507131013 | 42 | 223 | 0.0 | 0.0 | 0.00 | 0.00 | 0.00 | 988.8 | |
| 20260507130521 | 42 | 224 | 0.0 | 0.0 | 0.00 | 0.00 | 0.00 | 988.8 | |
| 20260507130021 | 41 | 225 | 0.0 | 0.0 | 0.00 | 0.00 | 0.00 | 987.8 | |
| 20260507125514 | 41 | 228 | 0.0 | 3.0 | 0.00 | 0.00 | 0.00 | 987.8 | |
| 20260507125025 | 41 | 232 | 0.0 | 3.0 | 0.00 | 0.00 | 0.00 | 987.8 | |
| 20260507124517 | 40 | 220 | 0.0 | 0.0 | 0.00 | 0.00 | 0.00 | 987.8 | |
| 20260507124014 | 40 | 237 | 0.0 | 0.0 | 0.00 | 0.00 | 0.00 | 987.8 | |
| 20260507123515 | 40 | 229 | 0.0 | 0.0 | 0.00 | 0.00 | 0.00 | 987.8 | |
| 20260507123037 | 40 | 229 | 0.0 | 0.0 | 0.00 | 0.00 | 0.00 | 987.8 | |
| 20260507122513 | 39 | 229 | 0.0 | 0.0 | 0.00 | 0.00 | 0.00 | 987.8 | |
| 20260507122014 | 39 | 223 | 0.0 | 0.0 | 0.00 | 0.00 | 0.00 | 987.8 | |
| 20260507121541 | 39 | 230 | 0.0 | 0.0 | 0.00 | 0.00 | 0.00 | 987.8 | |
| 20260507121013 | 38 | 228 | 0.0 | 0.0 | 0.00 | 0.00 | 0.00 | 987.8 | |
| 20260507120521 | 38 | 243 | 0.0 | 0.0 | 0.00 | 0.00 | 0.00 | 987.8 | |
| 20260507120014 | 37 | 243 | 0.0 | 3.0 | 0.00 | 0.00 | 0.00 | 987.8 | |
| 20260507115514 | 36 | 243 | 0.0 | 0.0 | 0.00 | 0.00 | 0.00 | 987.8 | |
| 20260507115015 | 36 | 243 | 0.0 | 2.0 | 0.00 | 0.00 | 0.00 | 987.8 | |
| 20260507114519 | 35 | 253 | 0.0 | 0.0 | 0.00 | 0.00 | 0.00 | 987.8 | |
| 20260507114014 | 35 | 253 | 0.0 | 0.0 | 0.00 | 0.00 | 0.00 | 987.8 | |
| 20260507113516 | 34 | 255 | 0.0 | 0.0 | 0.00 | 0.00 | 0.00 | 987.8 | |
| 20260507113015 | 34 | 255 | 0.0 | 0.0 | 0.00 | 0.00 | 0.00 | 986.8 | |
| 20260507112515 | 33 | 255 | 0.0 | 0.0 | 0.00 | 0.00 | 0.00 | 986.8 | |
| 20260507112014 | 33 | 255 | 0.0 | 0.0 | 0.00 | 0.00 | 0.00 | 986.8 | |
| 20260507111514 | 33 | 255 | 0.0 | 0.0 | 0.00 | 0.00 | 0.00 | 987.8 | |
| 20260507111035 | 33 | 255 | 0.0 | 0.0 | 0.00 | 0.00 | 0.00 | 987.8 | |
| 20260507110514 | 33 | 255 | 0.0 | 0.0 | 0.00 | 0.00 | 0.00 | 987.8 | |
| 20260507110017 | 33 | 255 | 0.0 | 0.0 | 0.00 | 0.00 | 0.00 | 986.8 | |
| 20260507105523 | 32 | 255 | 0.0 | 0.0 | 0.00 | 0.00 | 0.00 | 986.8 | |
| 20260507105034 | 32 | 255 | 0.0 | 0.0 | 0.00 | 0.00 | 0.00 | 986.8 | |
| 20260507104521 | 32 | 255 | 0.0 | 0.0 | 0.00 | 0.00 | 0.00 | 986.8 | |
| 20260507104014 | 32 | 255 | 0.0 | 0.0 | 0.00 | 0.00 | 0.00 | 986.8 | |
| 20260507103513 | 32 | 255 | 0.0 | 0.0 | 0.00 | 0.00 | 0.00 | 986.8 | |
| 20260507103015 | 32 | 255 | 0.0 | 0.0 | 0.00 | 0.00 | 0.00 | 986.8 | |
| 20260507102515 | 32 | 255 | 0.0 | 0.0 | 0.00 | 0.00 | 0.00 | 986.8 | |
| 20260507102016 | 32 | 255 | 0.0 | 0.0 | 0.00 | 0.00 | 0.00 | 986.8 | |
| 20260507101516 | 32 | 255 | 0.0 | 0.0 | 0.00 | 0.00 | 0.00 | 986.8 | |
| 20260507101022 | 32 | 255 | 0.0 | 0.0 | 0.00 | 0.00 | 0.00 | 986.8 | |
| 20260507100514 | 32 | 255 | 0.0 | 0.0 | 0.00 | 0.00 | 0.00 | 986.8 | |
| 20260507100015 | 32 | 255 | 0.0 | 0.0 | 0.00 | 0.00 | 0.00 | 986.8 | |
| 20260507095514 | 32 | 255 | 0.0 | 0.0 | 0.00 | 0.00 | 0.00 | 986.8 | |
| 20260507095015 | 32 | 255 | 0.0 | 0.0 | 0.00 | 0.00 | 0.00 | 986.8 | |
| 20260507094514 | 32 | 255 | 0.0 | 0.0 | 0.00 | 0.00 | 0.00 | 986.8 | |
| 20260507094015 | 32 | 255 | 0.0 | 0.0 | 0.00 | 0.00 | 0.00 | 986.8 | |
| 20260507093514 | 33 | 255 | 0.0 | 0.0 | 0.00 | 0.00 | 0.00 | 986.8 | |
| 20260507093036 | 33 | 255 | 0.0 | 0.0 | 0.00 | 0.00 | 0.00 | 987.8 | |
| 20260507092519 | 33 | 255 | 0.0 | 0.0 | 0.00 | 0.00 | 0.00 | 987.8 | |
| 20260507092013 | 33 | 255 | 0.0 | 0.0 | 0.00 | 0.00 | 0.00 | 987.8 | |
| 20260507091517 | 33 | 255 | 0.0 | 0.0 | 0.00 | 0.00 | 0.00 | 987.8 | |
| 20260507091014 | 33 | 255 | 0.0 | 0.0 | 0.00 | 0.00 | 0.00 | 987.8 | |
| 20260507090515 | 33 | 255 | 0.0 | 0.0 | 0.00 | 0.00 | 0.00 | 987.8 | |
| 20260507090013 | 33 | 255 | 0.0 | 0.0 | 0.00 | 0.00 | 0.00 | 987.8 | |
| 20260507085513 | 33 | 255 | 0.0 | 0.0 | 0.00 | 0.00 | 0.00 | 987.8 | |
| 20260507085013 | 33 | 255 | 0.0 | 0.0 | 0.00 | 0.00 | 0.00 | 987.8 | |
| 20260507084513 | 33 | 255 | 0.0 | 0.0 | 0.00 | 0.00 | 0.00 | 986.8 | |
| 20260507084013 | 33 | 255 | 0.0 | 0.0 | 0.00 | 0.00 | 0.00 | 986.8 | |
| 20260507083523 | 33 | 255 | 0.0 | 0.0 | 0.00 | 0.00 | 0.00 | 986.8 | |
| 20260507083015 | 33 | 255 | 0.0 | 0.0 | 0.00 | 0.00 | 0.00 | 986.8 | |
| 20260507082518 | 33 | 255 | 0.0 | 0.0 | 0.00 | 0.00 | 0.00 | 986.8 | |
| 20260507082013 | 33 | 255 | 0.0 | 0.0 | 0.00 | 0.00 | 0.00 | 986.8 | |
| 20260507081514 | 33 | 255 | 0.0 | 0.0 | 0.00 | 0.00 | 0.00 | 987.8 | |
| 20260507081035 | 33 | 255 | 0.0 | 0.0 | 0.00 | 0.00 | 0.00 | 987.8 | |
| 20260507080513 | 33 | 255 | 0.0 | 0.0 | 0.00 | 0.00 | 0.00 | 987.8 | |
| 20260507080015 | 33 | 255 | 0.0 | 0.0 | 0.00 | 0.00 | 0.00 | 986.8 | |
| 20260507075514 | 33 | 255 | 0.0 | 0.0 | 0.00 | 0.00 | 0.00 | 986.8 | |
| 20260507075013 | 33 | 255 | 0.0 | 0.0 | 0.00 | 0.00 | 0.00 | 986.8 | |
| 20260507074513 | 34 | 255 | 0.0 | 0.0 | 0.00 | 0.00 | 0.00 | 986.8 | |
| 20260507074013 | 34 | 255 | 0.0 | 0.0 | 0.00 | 0.00 | 0.00 | 986.8 | |
| 20260507073515 | 34 | 255 | 0.0 | 0.0 | 0.00 | 0.00 | 0.00 | 986.8 | |
| 20260507073037 | 35 | 255 | 0.0 | 0.0 | 0.00 | 0.00 | 0.00 | 987.8 | |
| 20260507072514 | 35 | 255 | 0.0 | 0.0 | 0.00 | 0.00 | 0.00 | 987.8 | |
| 20260507072013 | 35 | 255 | 0.0 | 0.0 | 0.00 | 0.00 | 0.00 | 987.8 | |
| 20260507071514 | 35 | 255 | 0.0 | 0.0 | 0.00 | 0.00 | 0.00 | 987.8 | |
| 20260507071014 | 35 | 255 | 0.0 | 0.0 | 0.00 | 0.00 | 0.00 | 987.8 | |
| 20260507070541 | 35 | 255 | 0.0 | 0.0 | 0.00 | 0.00 | 0.00 | 987.8 | |
| 20260507070014 | 35 | 255 | 0.0 | 0.0 | 0.00 | 0.00 | 0.00 | 987.8 | |
| 20260507065517 | 35 | 255 | 0.0 | 0.0 | 0.00 | 0.00 | 0.00 | 987.8 | |
| 20260507065014 | 35 | 255 | 0.0 | 0.0 | 0.00 | 0.00 | 0.00 | 987.8 | |
| 20260507064515 | 35 | 255 | 0.0 | 0.0 | 0.00 | 0.00 | 0.00 | 987.8 | |
| 20260507064014 | 35 | 255 | 0.0 | 0.0 | 0.00 | 0.00 | 0.00 | 987.8 | |
| 20260507063513 | 35 | 255 | 0.0 | 0.0 | 0.00 | 0.00 | 0.00 | 987.8 | |
| 20260507063015 | 35 | 255 | 0.0 | 0.0 | 0.00 | 0.00 | 0.00 | 987.8 | |
| 20260507062514 | 36 | 255 | 0.0 | 0.0 | 0.00 | 0.00 | 0.00 | 987.8 | |
| 20260507062014 | 36 | 255 | 0.0 | 0.0 | 0.00 | 0.00 | 0.00 | 987.8 | |
| 20260507061514 | 36 | 255 | 0.0 | 0.0 | 0.00 | 0.00 | 0.00 | 987.8 | |
| 20260507061013 | 36 | 255 | 0.0 | 0.0 | 0.00 | 0.00 | 0.00 | 987.8 | |
| 20260507060514 | 36 | 255 | 0.0 | 0.0 | 0.00 | 0.00 | 0.00 | 987.8 | |
| 20260507060023 | 36 | 255 | 0.0 | 0.0 | 0.00 | 0.00 | 0.00 | 987.8 | |
| 20260507055519 | 36 | 255 | 0.0 | 0.0 | 0.00 | 0.00 | 0.00 | 987.8 | |
| 20260507055013 | 36 | 255 | 0.0 | 0.0 | 0.00 | 0.00 | 0.00 | 987.8 | |
| 20260507054534 | 37 | 255 | 0.0 | 0.0 | 0.00 | 0.00 | 0.00 | 987.8 | |
| 20260507054019 | 37 | 255 | 0.0 | 0.0 | 0.00 | 0.00 | 0.00 | 987.8 | |
| 20260507053513 | 37 | 255 | 0.0 | 0.0 | 0.00 | 0.00 | 0.00 | 987.8 | |
| 20260507053021 | 37 | 255 | 0.0 | 0.0 | 0.00 | 0.00 | 0.00 | 987.8 | |
| 20260507052514 | 38 | 255 | 0.0 | 0.0 | 0.00 | 0.00 | 0.00 | 987.8 | |
| 20260507052013 | 38 | 255 | 0.0 | 0.0 | 0.00 | 0.00 | 0.00 | 987.8 | |
| 20260507051520 | 38 | 255 | 0.0 | 0.0 | 0.00 | 0.00 | 0.00 | 987.8 | |
| 20260507051013 | 38 | 255 | 0.0 | 0.0 | 0.00 | 0.00 | 0.00 | 987.8 | |
| 20260507050515 | 38 | 255 | 0.0 | 0.0 | 0.00 | 0.00 | 0.00 | 987.8 | |
| 20260507050015 | 38 | 255 | 0.0 | 0.0 | 0.00 | 0.00 | 0.00 | 987.8 | |
| 20260507045517 | 39 | 255 | 0.0 | 0.0 | 0.00 | 0.00 | 0.00 | 987.8 | |
| 20260507045021 | 39 | 255 | 0.0 | 0.0 | 0.00 | 0.00 | 0.00 | 987.8 | |
| 20260507044516 | 39 | 255 | 0.0 | 0.0 | 0.00 | 0.00 | 0.00 | 987.8 | |
| 20260507044014 | 39 | 255 | 0.0 | 0.0 | 0.00 | 0.00 | 0.00 | 987.8 | |
| 20260507043516 | 40 | 255 | 0.0 | 0.0 | 0.00 | 0.00 | 0.00 | 987.8 | |
| 20260507043014 | 40 | 255 | 0.0 | 0.0 | 0.00 | 0.00 | 0.00 | 988.8 | |
| 20260507042513 | 40 | 255 | 0.0 | 0.0 | 0.00 | 0.00 | 0.00 | 988.8 | |
| 20260507042020 | 40 | 255 | 0.0 | 0.0 | 0.00 | 0.00 | 0.00 | 988.8 | |
| 20260507041535 | 41 | 255 | 0.0 | 0.0 | 0.00 | 0.00 | 0.00 | 987.8 | |
| 20260507041016 | 41 | 255 | 0.0 | 0.0 | 0.00 | 0.00 | 0.00 | 987.8 | |
| 20260507040514 | 41 | 255 | 0.0 | 0.0 | 0.00 | 0.00 | 0.00 | 987.8 | |
| 20260507040015 | 41 | 255 | 0.0 | 0.0 | 0.00 | 0.00 | 0.00 | 988.8 | |
| 20260507035513 | 42 | 255 | 0.0 | 0.0 | 0.00 | 0.00 | 0.00 | 988.8 | |
| 20260507035014 | 42 | 255 | 0.0 | 0.0 | 0.00 | 0.00 | 0.00 | 988.8 | |
| 20260507034541 | 42 | 255 | 0.0 | 0.0 | 0.00 | 0.00 | 0.00 | 987.8 | |
| 20260507034015 | 42 | 255 | 0.0 | 0.0 | 0.00 | 0.00 | 0.00 | 987.8 | |
| 20260507033518 | 42 | 255 | 0.0 | 0.0 | 0.00 | 0.00 | 0.00 | 987.8 |